Time;durP1;ratioP1;P1;durP2;ratioP2;P2;SDS_P1;SDS_P2;PMS_P1;PMS_P2;Temp;Humidity;BMP_temperature;BMP_pressure;BME280_temperature;BME280_humidity;BME280_pressure;Samples;Min_cycle;Max_cycle;Signal;HPM_P1;HPM_P2
2023/12/11 00:01:39;;;;;;;3.80;2.85;;;2.20;90.10;;;;;;5071241;28;20509;-74
2023/12/11 00:04:06;;;;;;;1.73;1.20;;;2.10;90.00;;;;;;5054688;28;20105;-73
2023/12/11 00:06:32;;;;;;;1.75;1.13;;;2.20;89.50;;;;;;5072884;28;20081;-73
2023/12/11 00:08:58;;;;;;;;;;;2.20;89.30;;;;;;5073374;28;20050;-71
2023/12/11 00:11:24;;;;;;;2.72;1.70;;;2.20;89.90;;;;;;5071066;28;19916;-73
2023/12/11 00:13:51;;;;;;;2.42;1.23;;;2.30;89.80;;;;;;5072940;28;20435;-74
2023/12/11 00:16:18;;;;;;;1.83;1.50;;;2.30;89.50;;;;;;5072260;28;20090;-73
2023/12/11 00:18:44;;;;;;;4.72;3.65;;;2.20;88.90;;;;;;5072745;28;20290;-70
2023/12/11 00:21:10;;;;;;;3.00;1.67;;;2.30;89.40;;;;;;5071041;28;20075;-71
2023/12/11 00:23:36;;;;;;;2.58;1.05;;;2.20;89.30;;;;;;5071221;28;20051;-71
2023/12/11 00:26:02;;;;;;;;;;;2.20;89.50;;;;;;5073100;28;20494;-73
2023/12/11 00:28:28;;;;;;;5.40;1.75;;;2.20;89.20;;;;;;5071240;28;19986;-71
2023/12/11 00:30:54;;;;;;;3.67;1.55;;;2.20;89.30;;;;;;5050606;28;20564;-71
2023/12/11 00:33:20;;;;;;;3.03;1.67;;;2.20;89.50;;;;;;5051174;28;20082;-73
2023/12/11 00:35:46;;;;;;;6.82;3.30;;;2.20;89.50;;;;;;5052441;28;20096;-73
2023/12/11 00:38:13;;;;;;;6.07;2.03;;;2.30;89.40;;;;;;5067869;28;20037;-73
2023/12/11 00:40:39;;;;;;;2.88;1.67;;;2.20;89.00;;;;;;5050504;28;20402;-71
2023/12/11 00:43:05;;;;;;;4.43;1.35;;;2.10;89.20;;;;;;5051177;28;20048;-73
2023/12/11 00:45:31;;;;;;;3.22;1.75;;;2.00;89.00;;;;;;5050764;28;20509;-73
2023/12/11 00:47:57;;;;;;;2.47;1.83;;;2.00;89.20;;;;;;5052347;28;20040;-71
2023/12/11 00:50:23;;;;;;;;;;;1.90;89.20;;;;;;5051114;28;20135;-71
2023/12/11 00:52:49;;;;;;;2.25;1.63;;;1.90;89.00;;;;;;5050906;28;19920;-70
2023/12/11 00:55:15;;;;;;;3.95;2.33;;;1.80;88.90;;;;;;5050644;28;20025;-71
2023/12/11 00:57:41;;;;;;;2.55;1.85;;;1.80;89.20;;;;;;5052369;28;20044;-71
2023/12/11 01:00:08;;;;;;;3.05;1.88;;;1.90;89.60;;;;;;5050521;28;20060;-71
2023/12/11 01:02:35;;;;;;;5.32;1.75;;;1.80;89.30;;;;;;5052166;28;20079;-71
2023/12/11 01:05:02;;;;;;;5.97;2.28;;;1.80;89.50;;;;;;5050608;28;20064;-70
2023/12/11 01:07:28;;;;;;;1.77;1.15;;;1.80;89.70;;;;;;5034540;28;20064;-71
2023/12/11 01:09:55;;;;;;;6.60;2.58;;;1.80;89.60;;;;;;5052297;28;20036;-73
2023/12/11 01:12:21;;;;;;;2.55;1.55;;;1.90;89.30;;;;;;5050195;28;20041;-71
2023/12/11 01:14:47;;;;;;;3.55;2.70;;;1.90;89.50;;;;;;5050872;28;20033;-71
2023/12/11 01:17:13;;;;;;;4.40;2.10;;;1.90;89.40;;;;;;5050991;28;20041;-71
2023/12/11 01:19:41;;;;;;;4.45;1.77;;;1.90;89.30;;;;;;5052356;28;20053;-73
2023/12/11 01:22:07;;;;;;;1.60;1.08;;;1.90;89.00;;;;;;5051797;28;20136;-73
2023/12/11 01:24:33;;;;;;;3.85;2.13;;;1.90;88.70;;;;;;5051962;28;20056;-73
2023/12/11 01:26:59;;;;;;;3.85;1.70;;;2.00;89.00;;;;;;5051560;28;20040;-73
2023/12/11 01:29:27;;;;;;;4.20;0.90;;;1.90;88.70;;;;;;5054823;28;20382;-73
2023/12/11 01:31:53;;;;;;;5.28;2.05;;;1.80;88.70;;;;;;5054096;28;20060;-73
2023/12/11 01:34:19;;;;;;;2.53;1.73;;;1.80;88.70;;;;;;5055897;28;20437;-73
2023/12/11 01:36:45;;;;;;;3.88;2.67;;;1.80;88.90;;;;;;5054540;28;20033;-71
2023/12/11 01:39:11;;;;;;;3.88;1.65;;;1.70;88.90;;;;;;5054481;28;20129;-73
2023/12/11 01:41:38;;;;;;;2.75;0.93;;;1.70;89.10;;;;;;5037207;28;20509;-71
2023/12/11 01:44:04;;;;;;;3.42;2.33;;;1.80;89.20;;;;;;5055501;28;20033;-73
2023/12/11 01:46:31;;;;;;;2.92;1.77;;;1.80;89.20;;;;;;5054413;28;20036;-71
2023/12/11 01:48:58;;;;;;;2.92;1.33;;;1.80;89.00;;;;;;5054272;28;20037;-71
2023/12/11 01:51:25;;;;;;;;;;;1.80;88.90;;;;;;5054125;28;20086;-71
2023/12/11 01:53:52;;;;;;;1.95;1.38;;;1.80;88.90;;;;;;5053757;28;19917;-70
2023/12/11 01:56:20;;;;;;;2.83;2.08;;;1.80;88.70;;;;;;5055358;28;20041;-73
2023/12/11 01:58:46;;;;;;;2.00;1.40;;;1.80;88.70;;;;;;5055594;28;20033;-73
2023/12/11 02:01:14;;;;;;;;;;;1.70;88.30;;;;;;5054054;28;20072;-73
2023/12/11 02:03:41;;;;;;;2.92;2.67;;;1.70;88.90;;;;;;5053579;28;19920;-70
2023/12/11 02:06:07;;;;;;;3.40;1.73;;;1.70;88.70;;;;;;5054068;28;20393;-74
2023/12/11 02:08:34;;;;;;;3.38;1.65;;;1.70;88.90;;;;;;5053907;28;20044;-73
2023/12/11 02:11:00;;;;;;;2.95;1.70;;;1.70;88.60;;;;;;5053341;28;20048;-73
2023/12/11 02:13:26;;;;;;;;;;;1.70;89.20;;;;;;5054197;28;20063;-73
2023/12/11 02:15:52;;;;;;;1.85;1.00;;;1.80;89.20;;;;;;5054001;28;19916;-74
2023/12/11 02:18:19;;;;;;;6.20;2.30;;;1.80;89.20;;;;;;5055075;28;20388;-73
2023/12/11 02:20:45;;;;;;;1.67;0.80;;;1.80;88.70;;;;;;5052953;28;20039;-71
2023/12/11 02:23:33;;;;;;;1.77;1.60;;;1.80;88.60;;;;;;5036991;28;20087;-70
2023/12/11 02:26:19;;;;;;;2.03;1.23;;;1.80;88.60;;;;;;5053604;28;20116;-73
2023/12/11 02:28:45;;;;;;;2.15;1.05;;;1.80;88.50;;;;;;5053450;28;20498;-73
2023/12/11 02:31:12;;;;;;;2.92;1.35;;;1.80;87.80;;;;;;5054220;28;20036;-71
2023/12/11 02:33:38;;;;;;;2.90;1.10;;;1.80;87.50;;;;;;5054782;28;20037;-73
2023/12/11 02:36:05;;;;;;;;;;;1.90;88.10;;;;;;5054144;28;20036;-73
2023/12/11 02:38:31;;;;;;;1.40;0.93;;;1.90;87.30;;;;;;5052833;28;19924;-73
2023/12/11 02:40:57;;;;;;;3.35;1.23;;;1.90;87.30;;;;;;5052758;28;20116;-73
2023/12/11 02:43:23;;;;;;;1.88;1.08;;;1.90;87.10;;;;;;5053143;28;20112;-73
2023/12/11 02:45:49;;;;;;;2.60;1.35;;;1.80;86.60;;;;;;5054283;28;20572;-70
2023/12/11 02:48:15;;;;;;;1.55;0.95;;;1.80;86.90;;;;;;5053275;28;20101;-73
2023/12/11 02:50:42;;;;;;;1.88;0.93;;;1.80;86.70;;;;;;5053791;28;20041;-73
2023/12/11 02:53:08;;;;;;;1.75;1.48;;;1.70;86.50;;;;;;5053162;28;20465;-71
2023/12/11 02:55:34;;;;;;;2.42;1.38;;;1.70;86.50;;;;;;5053942;28;20040;-73
2023/12/11 02:58:03;;;;;;;2.92;1.75;;;1.70;86.60;;;;;;5053282;28;20032;-73
2023/12/11 03:00:30;;;;;;;2.03;1.15;;;1.60;86.40;;;;;;5052461;28;20317;-70
2023/12/11 03:02:57;;;;;;;2.72;1.50;;;1.60;86.60;;;;;;5052810;28;20036;-73
2023/12/11 03:05:23;;;;;;;;;;;1.60;87.00;;;;;;5054660;28;20441;-73
2023/12/11 03:07:49;;;;;;;1.77;1.13;;;1.60;87.10;;;;;;5036236;28;19928;-70
2023/12/11 03:10:15;;;;;;;2.35;1.58;;;1.50;86.30;;;;;;5053264;28;20036;-71
2023/12/11 03:12:42;;;;;;;3.72;1.77;;;1.40;86.50;;;;;;5052661;28;20071;-73
2023/12/11 03:15:09;;;;;;;0.93;0.68;;;1.40;87.50;;;;;;5053936;28;20037;-71
2023/12/11 03:17:35;;;;;;;1.00;0.52;;;1.40;87.40;;;;;;5052898;28;20036;-71
2023/12/11 03:20:01;;;;;;;2.38;1.45;;;1.40;87.50;;;;;;5052824;28;20037;-73
2023/12/11 03:22:28;;;;;;;3.67;1.70;;;1.40;87.50;;;;;;5051674;28;20060;-73
2023/12/11 03:24:55;;;;;;;3.78;1.60;;;1.30;86.60;;;;;;5035962;28;20087;-73
2023/12/11 03:27:21;;;;;;;2.10;1.30;;;1.30;87.00;;;;;;5052545;28;20025;-70
2023/12/11 03:29:48;;;;;;;1.90;1.13;;;1.30;87.10;;;;;;5052688;28;20044;-73
2023/12/11 03:32:14;;;;;;;1.83;1.55;;;1.20;86.90;;;;;;5051823;28;20429;-73
2023/12/11 03:34:41;;;;;;;;;;;1.30;86.60;;;;;;5052788;28;20033;-73
2023/12/11 03:37:09;;;;;;;4.32;3.05;;;1.30;86.90;;;;;;5052400;28;19920;-71
2023/12/11 03:39:35;;;;;;;3.95;2.88;;;1.30;86.70;;;;;;5052209;28;20032;-73
2023/12/11 03:42:01;;;;;;;3.72;2.17;;;1.30;86.60;;;;;;5051590;28;20033;-70
2023/12/11 03:44:27;;;;;;;4.47;1.65;;;1.30;86.50;;;;;;5052336;28;20036;-73
2023/12/11 03:46:53;;;;;;;5.22;2.13;;;1.30;86.40;;;;;;5052459;28;20113;-71
2023/12/11 03:49:20;;;;;;;3.08;0.80;;;1.30;86.40;;;;;;5053081;28;20041;-73
2023/12/11 03:51:47;;;;;;;4.70;2.58;;;1.30;86.20;;;;;;5052376;28;20038;-71
2023/12/11 03:54:13;;;;;;;3.47;2.15;;;1.30;86.20;;;;;;5051744;28;20414;-73
2023/12/11 03:56:40;;;;;;;3.70;1.63;;;1.30;86.40;;;;;;5053454;28;20482;-73
2023/12/11 03:59:06;;;;;;;1.13;0.98;;;1.30;86.60;;;;;;5052149;28;20486;-73
2023/12/11 04:01:32;;;;;;;3.78;2.65;;;1.30;86.10;;;;;;5052581;28;20460;-73
2023/12/11 04:04:00;;;;;;;2.05;1.15;;;1.30;86.90;;;;;;5052848;28;20052;-73
2023/12/11 04:06:26;;;;;;;2.97;1.92;;;1.30;86.80;;;;;;5051736;28;20394;-71
2023/12/11 04:08:52;;;;;;;1.73;0.77;;;1.30;86.80;;;;;;5051927;28;20091;-71
2023/12/11 04:11:19;;;;;;;1.38;0.68;;;1.30;86.30;;;;;;5052260;28;20412;-73
2023/12/11 04:13:45;;;;;;;1.05;0.68;;;1.30;86.90;;;;;;5051501;28;20032;-73
2023/12/11 04:16:11;;;;;;;;;;;1.30;87.00;;;;;;5053240;28;20104;-73
2023/12/11 04:18:38;;;;;;;3.77;1.33;;;1.20;86.90;;;;;;5051606;28;19920;-70
2023/12/11 04:21:05;;;;;;;;;;;1.20;87.00;;;;;;5051463;28;20438;-71
2023/12/11 04:23:31;;;;;;;1.85;1.33;;;1.20;86.90;;;;;;5051235;28;19920;-73
2023/12/11 04:25:58;;;;;;;1.00;0.73;;;1.20;87.10;;;;;;5051290;28;20449;-73
2023/12/11 04:28:26;;;;;;;1.88;1.17;;;1.10;87.20;;;;;;5051346;28;20039;-71
2023/12/11 04:30:52;;;;;;;1.98;1.45;;;1.10;87.40;;;;;;5051989;28;20029;-70
2023/12/11 04:33:18;;;;;;;2.75;1.98;;;1.10;87.50;;;;;;5052465;28;20033;-73
2023/12/11 04:35:44;;;;;;;;;;;1.20;87.40;;;;;;5051679;28;20067;-73
2023/12/11 04:38:11;;;;;;;1.92;1.17;;;1.20;87.40;;;;;;5052651;28;19928;-73
2023/12/11 04:40:37;;;;;;;3.67;2.28;;;1.10;87.20;;;;;;5050555;28;20033;-71
2023/12/11 04:43:03;;;;;;;1.75;1.10;;;1.10;87.20;;;;;;5034409;28;20037;-70
2023/12/11 04:45:30;;;;;;;12.38;2.10;;;1.10;86.70;;;;;;5050834;28;20086;-70
2023/12/11 04:47:56;;;;;;;;;;;1.20;86.70;;;;;;5051790;28;20025;-73
2023/12/11 04:50:22;;;;;;;1.58;0.77;;;1.10;87.50;;;;;;5050342;28;19939;-70
2023/12/11 04:52:48;;;;;;;1.10;0.50;;;1.10;87.60;;;;;;5051960;28;20039;-72
2023/12/11 04:55:15;;;;;;;2.17;1.00;;;1.10;87.20;;;;;;5050808;28;20029;-73
2023/12/11 04:57:41;;;;;;;0.60;0.60;;;1.10;87.80;;;;;;5051051;28;20095;-70
2023/12/11 05:00:08;;;;;;;1.45;1.00;;;1.10;88.00;;;;;;5051936;28;20115;-73
2023/12/11 05:02:34;;;;;;;1.42;0.73;;;1.10;87.90;;;;;;5039617;28;20025;-73
2023/12/11 05:05:00;;;;;;;2.00;0.82;;;1.20;88.00;;;;;;5058514;28;20120;-73
2023/12/11 05:07:26;;;;;;;1.33;0.65;;;1.10;87.90;;;;;;5057841;28;20021;-74
2023/12/11 05:09:52;;;;;;;1.67;0.90;;;1.20;88.00;;;;;;5057816;28;20559;-70
2023/12/11 05:12:18;;;;;;;1.63;0.63;;;1.20;88.00;;;;;;5040345;28;20058;-73
2023/12/11 05:14:45;;;;;;;3.45;1.60;;;1.20;88.00;;;;;;5057187;28;20037;-73
2023/12/11 05:17:11;;;;;;;0.98;0.68;;;1.20;87.80;;;;;;5057492;28;20037;-73
2023/12/11 05:19:37;;;;;;;1.88;1.08;;;1.20;87.60;;;;;;5057690;28;20501;-73
2023/12/11 05:22:03;;;;;;;2.65;1.38;;;1.20;87.50;;;;;;5056917;28;20045;-70
2023/12/11 05:24:29;;;;;;;1.60;0.77;;;1.30;87.40;;;;;;5057183;28;20049;-71
2023/12/11 05:26:55;;;;;;;1.80;1.08;;;1.30;88.10;;;;;;5057252;28;20040;-73
2023/12/11 05:29:22;;;;;;;1.48;0.80;;;1.30;87.40;;;;;;5057274;28;20040;-73
2023/12/11 05:31:49;;;;;;;1.23;0.88;;;1.30;87.40;;;;;;5056687;28;20486;-71
2023/12/11 05:34:15;;;;;;;2.05;1.38;;;1.30;87.40;;;;;;5040305;28;20033;-71
2023/12/11 05:36:42;;;;;;;4.05;2.40;;;1.30;87.40;;;;;;5057135;28;20441;-73
2023/12/11 05:39:08;;;;;;;2.05;1.73;;;1.30;87.40;;;;;;5058441;28;20040;-73
2023/12/11 05:41:34;;;;;;;3.72;2.08;;;1.40;87.40;;;;;;5056556;28;20052;-71
2023/12/11 05:44:00;;;;;;;;;;;1.40;87.20;;;;;;5057299;28;20483;-70
2023/12/11 05:46:26;;;;;;;1.33;0.85;;;1.40;87.10;;;;;;5058415;28;20069;-73
2023/12/11 05:48:52;;;;;;;;;;;1.40;86.70;;;;;;5058967;28;20095;-74
2023/12/11 05:51:18;;;;;;;2.00;1.67;;;1.40;86.80;;;;;;5056134;28;19917;-73
2023/12/11 05:53:44;;;;;;;5.80;2.33;;;1.40;86.70;;;;;;5056785;28;20486;-73
2023/12/11 05:56:10;;;;;;;12.35;3.03;;;1.40;86.80;;;;;;5058242;28;20421;-73
2023/12/11 05:58:36;;;;;;;3.90;2.20;;;1.40;86.90;;;;;;5057012;28;20041;-73
2023/12/11 06:01:04;;;;;;;;;;;1.40;87.00;;;;;;5057994;28;20041;-73
2023/12/11 06:03:30;;;;;;;2.95;1.65;;;1.40;86.90;;;;;;5056841;28;19960;-71
2023/12/11 06:05:58;;;;;;;5.65;3.75;;;1.40;86.80;;;;;;5058061;28;20040;-73
2023/12/11 06:08:43;;;;;;;3.40;2.25;;;1.40;86.80;;;;;;5056840;28;20063;-73
2023/12/11 06:11:10;;;;;;;2.20;1.30;;;1.40;86.80;;;;;;5056278;28;20048;-73
2023/12/11 06:13:36;;;;;;;6.82;1.67;;;1.40;86.30;;;;;;5037316;28;20044;-71
2023/12/11 06:16:04;;;;;;;2.58;1.92;;;1.30;87.10;;;;;;5036814;28;20033;-71
2023/12/11 06:18:30;;;;;;;2.78;1.75;;;1.20;86.60;;;;;;5053634;28;20452;-74
2023/12/11 06:20:58;;;;;;;4.00;2.10;;;1.20;86.80;;;;;;5053008;28;20025;-71
2023/12/11 06:23:25;;;;;;;4.30;1.52;;;1.20;87.40;;;;;;5053444;28;20029;-73
2023/12/11 06:25:51;;;;;;;6.43;2.47;;;1.20;87.30;;;;;;5053143;28;20033;-71
2023/12/11 06:28:17;;;;;;;;;;;1.10;87.30;;;;;;5037416;28;20033;-71
2023/12/11 06:30:43;;;;;;;5.07;2.85;;;1.10;87.40;;;;;;5052854;28;20400;-73
2023/12/11 06:33:09;;;;;;;;;;;1.10;87.30;;;;;;5055256;28;20278;-71
2023/12/11 06:35:35;;;;;;;9.38;5.22;;;1.00;86.80;;;;;;5036355;28;20441;-73
2023/12/11 06:38:01;;;;;;;11.25;7.13;;;1.00;87.20;;;;;;5053361;28;20033;-71
2023/12/11 06:40:27;;;;;;;7.70;4.75;;;1.00;87.20;;;;;;5053942;28;20036;-70
2023/12/11 06:42:53;;;;;;;6.10;4.13;;;1.00;87.60;;;;;;5054144;28;20036;-72
2023/12/11 06:45:19;;;;;;;8.55;3.72;;;1.00;87.70;;;;;;5052884;28;20041;-74
2023/12/11 06:47:45;;;;;;;4.72;3.25;;;1.00;87.70;;;;;;5054301;28;20032;-70
2023/12/11 06:50:12;;;;;;;6.43;3.78;;;1.00;87.90;;;;;;5052479;28;20041;-71
2023/12/11 06:52:38;;;;;;;5.45;2.67;;;1.00;87.50;;;;;;5052789;28;20078;-73
2023/12/11 06:55:05;;;;;;;5.10;3.88;;;1.00;87.70;;;;;;5054467;28;20091;-73
2023/12/11 06:57:31;;;;;;;5.18;2.38;;;1.00;87.20;;;;;;5054218;28;20029;-71
2023/12/11 06:59:57;;;;;;;5.18;2.20;;;1.10;87.40;;;;;;5052989;28;20390;-70
2023/12/11 07:02:23;;;;;;;3.55;1.67;;;1.10;87.20;;;;;;5053787;28;20029;-70
2023/12/11 07:04:50;;;;;;;3.92;2.03;;;1.10;86.90;;;;;;5052260;28;20061;-73
2023/12/11 07:07:16;;;;;;;4.53;2.50;;;1.20;86.90;;;;;;5054115;28;20490;-70
2023/12/11 07:09:46;;;;;;;3.60;2.08;;;1.30;86.60;;;;;;5052532;28;20053;-71
2023/12/11 07:12:12;;;;;;;1.67;1.42;;;1.30;86.30;;;;;;5052218;28;20449;-73
2023/12/11 07:14:39;;;;;;;4.53;2.95;;;1.40;85.60;;;;;;5052425;28;20132;-71
2023/12/11 07:17:05;;;;;;;2.45;1.27;;;1.50;85.10;;;;;;5053794;28;20379;-73
2023/12/11 07:19:31;;;;;;;4.82;2.50;;;1.50;85.50;;;;;;5053518;28;20041;-71
2023/12/11 07:21:57;;;;;;;4.38;1.90;;;1.60;84.40;;;;;;5052980;28;20102;-70
2023/12/11 07:24:23;;;;;;;4.00;2.42;;;1.70;84.00;;;;;;5051393;28;20064;-74
2023/12/11 07:26:49;;;;;;;2.58;2.03;;;1.70;83.60;;;;;;5051861;28;20553;-71
2023/12/11 07:29:15;;;;;;;4.20;2.55;;;1.80;82.90;;;;;;5052506;28;20478;-71
2023/12/11 07:31:43;;;;;;;4.07;1.83;;;1.80;82.50;;;;;;5052924;28;20045;-73
2023/12/11 07:34:09;;;;;;;2.70;1.92;;;1.80;82.50;;;;;;5052332;28;20037;-72
2023/12/11 07:36:35;;;;;;;4.18;2.35;;;1.90;82.60;;;;;;5052249;28;20029;-71
2023/12/11 07:39:01;;;;;;;3.47;1.38;;;2.00;82.10;;;;;;5052379;28;20425;-73
2023/12/11 07:41:27;;;;;;;;;;;2.00;81.70;;;;;;5053472;28;20037;-70
2023/12/11 07:43:53;;;;;;;3.03;1.38;;;1.90;82.10;;;;;;5051997;28;19983;-73
2023/12/11 07:46:21;;;;;;;5.32;3.83;;;1.90;82.10;;;;;;5052009;28;20375;-74
2023/12/11 07:48:48;;;;;;;3.40;2.15;;;2.00;82.00;;;;;;5052088;28;20505;-73
2023/12/11 07:51:33;;;;;;;3.97;2.75;;;2.00;81.80;;;;;;5041155;28;20049;-70
2023/12/11 07:53:59;;;;;;;2.50;1.85;;;2.10;81.10;;;;;;5052907;28;20087;-72
2023/12/11 07:56:25;;;;;;;12.25;5.60;;;2.00;80.90;;;;;;5051727;28;20029;-73
2023/12/11 07:58:52;;;;;;;2.30;1.77;;;2.00;81.00;;;;;;5053120;28;20033;-71
2023/12/11 08:01:19;;;;;;;2.67;1.33;;;2.10;81.50;;;;;;5061545;28;20489;-73
2023/12/11 08:03:46;;;;;;;3.97;3.20;;;2.30;81.50;;;;;;5071209;28;20029;-71
2023/12/11 08:06:12;;;;;;;6.63;2.85;;;2.30;81.40;;;;;;5071526;28;20036;-73
2023/12/11 08:14:08;;;;;;;2.72;1.30;;;2.40;81.40;;;;;;5071618;28;20051;-70
2023/12/11 08:16:34;;;;;;;2.55;2.08;;;2.30;81.40;;;;;;5072532;28;20077;-73
2023/12/11 08:19:00;;;;;;;2.45;1.63;;;2.30;81.50;;;;;;5072421;28;20055;-71
2023/12/11 08:21:27;;;;;;;2.10;1.27;;;2.40;81.40;;;;;;5070762;28;20169;-71
2023/12/11 08:23:53;;;;;;;;;;;2.30;81.20;;;;;;5054939;28;20032;-73
2023/12/11 08:26:20;;;;;;;6.07;2.58;;;2.40;81.50;;;;;;5072336;28;19946;-73
2023/12/11 08:31:32;;;;;;;3.22;2.03;;;2.50;80.90;;;;;;5070804;28;20086;-70
2023/12/11 08:33:58;;;;;;;;;;;2.50;80.90;;;;;;5054881;28;20048;-73
2023/12/11 08:36:24;;;;;;;9.52;3.28;;;2.60;80.90;;;;;;5072002;28;19935;-72
2023/12/11 08:38:50;;;;;;;4.32;2.58;;;2.60;80.60;;;;;;5072396;28;20120;-73
2023/12/11 08:41:16;;;;;;;6.00;3.40;;;2.60;80.40;;;;;;5053673;28;20037;-73
2023/12/11 08:43:42;;;;;;;4.45;2.72;;;2.60;80.30;;;;;;5070942;28;20433;-73
2023/12/11 08:46:08;;;;;;;13.25;3.83;;;2.50;80.90;;;;;;5054069;28;20051;-70
2023/12/11 08:48:34;;;;;;;4.47;1.98;;;2.60;80.80;;;;;;5054217;28;20028;-71
2023/12/11 08:51:00;;;;;;;8.00;4.60;;;2.70;81.10;;;;;;5070348;28;20051;-73
2023/12/11 08:53:27;;;;;;;5.00;3.10;;;2.80;81.00;;;;;;5072153;28;20406;-70
2023/12/11 08:55:54;;;;;;;3.35;2.10;;;2.90;80.50;;;;;;5070749;28;20036;-70
2023/12/11 08:58:20;;;;;;;4.78;2.80;;;3.00;80.20;;;;;;5071027;28;20040;-71
2023/12/11 09:00:46;;;;;;;6.03;3.13;;;3.20;79.90;;;;;;5070358;28;20033;-71
2023/12/11 09:03:12;;;;;;;5.43;2.78;;;3.30;79.60;;;;;;5070866;28;20028;-73
2023/12/11 09:05:38;;;;;;;3.72;1.92;;;3.40;79.10;;;;;;5053955;28;20055;-71
2023/12/11 09:08:05;;;;;;;7.05;4.63;;;3.50;78.80;;;;;;5070844;28;20055;-73
2023/12/11 09:10:31;;;;;;;7.57;5.13;;;3.60;78.50;;;;;;5070224;28;20098;-71
2023/12/11 09:12:57;;;;;;;7.93;5.22;;;3.60;78.20;;;;;;5071889;28;20062;-70
2023/12/11 09:15:23;;;;;;;4.88;2.55;;;3.70;78.20;;;;;;5070532;28;20086;-73
2023/12/11 09:17:50;;;;;;;10.10;5.63;;;3.80;77.80;;;;;;5070816;28;20035;-71
2023/12/11 09:20:16;;;;;;;6.45;2.30;;;3.80;77.60;;;;;;5071024;28;20043;-73
2023/12/11 09:22:42;;;;;;;8.70;3.22;;;3.80;77.30;;;;;;5070727;28;20025;-72
2023/12/11 09:25:09;;;;;;;8.80;2.13;;;3.80;77.30;;;;;;5070629;28;20048;-71
2023/12/11 09:27:35;;;;;;;6.63;4.07;;;3.80;76.90;;;;;;5070844;28;20028;-71
2023/12/11 09:30:01;;;;;;;;;;;3.90;77.10;;;;;;5070961;28;20044;-71
2023/12/11 09:32:28;;;;;;;3.47;2.72;;;3.90;76.00;;;;;;5071283;28;19947;-73
2023/12/11 09:34:54;;;;;;;3.85;2.50;;;3.80;76.30;;;;;;5072081;28;20111;-71
2023/12/11 09:37:21;;;;;;;4.82;2.75;;;3.70;76.60;;;;;;5053949;28;20063;-71
2023/12/11 09:39:48;;;;;;;3.05;2.03;;;3.80;76.60;;;;;;5071924;28;20029;-73
2023/12/11 09:42:15;;;;;;;5.15;1.80;;;3.90;75.80;;;;;;5053166;28;20041;-73
2023/12/11 09:44:46;;;;;;;3.10;2.00;;;3.90;75.60;;;;;;5070182;28;20043;-73
2023/12/11 09:47:36;;;;;;;5.95;3.63;;;3.90;76.40;;;;;;5070406;28;20111;-70
2023/12/11 09:50:03;;;;;;;5.18;2.35;;;3.90;76.30;;;;;;5075727;28;20037;-73
2023/12/11 09:52:29;;;;;;;4.70;3.50;;;3.90;75.70;;;;;;5055149;28;20048;-70
2023/12/11 09:54:55;;;;;;;5.72;3.03;;;3.90;76.70;;;;;;5055491;28;20041;-73
2023/12/11 09:57:23;;;;;;;4.35;1.67;;;4.00;76.70;;;;;;5055341;28;20029;-71
2023/12/11 09:59:50;;;;;;;6.18;2.35;;;4.00;76.40;;;;;;5055595;28;20037;-72
2023/12/11 10:02:17;;;;;;;4.82;3.00;;;4.20;76.40;;;;;;5053485;28;20440;-70
2023/12/11 10:05:10;;;;;;;5.32;3.42;;;4.40;75.40;;;;;;5053379;28;20123;-71
2023/12/11 10:07:56;;;;;;;3.10;2.50;;;4.60;74.10;;;;;;5054264;28;20033;-73
2023/12/11 10:16:31;;;;;;;3.47;2.38;;;4.80;73.50;;;;;;5053927;28;20040;-73
2023/12/11 10:18:58;;;;;;;1.90;1.13;;;4.70;73.90;;;;;;5053588;28;20033;-70
2023/12/11 10:21:26;;;;;;;2.30;1.30;;;4.60;74.30;;;;;;5053165;28;20090;-71
2023/12/11 10:24:14;;;;;;;1.88;1.02;;;4.70;74.60;;;;;;5053373;28;20036;-73
2023/12/11 10:26:47;;;;;;;3.20;2.28;;;5.20;73.80;;;;;;5053512;28;20626;-70
2023/12/11 10:29:31;;;;;;;3.97;2.25;;;5.40;72.60;;;;;;5036991;28;20403;-71
2023/12/11 10:32:16;;;;;;;2.45;1.23;;;5.90;71.40;;;;;;5052651;28;20040;-73
2023/12/11 10:37:31;;;;;;;3.38;1.42;;;6.00;70.30;;;;;;5053948;28;20059;-71
2023/12/11 10:39:58;;;;;;;2.15;1.50;;;5.70;69.80;;;;;;5053209;28;20051;-71
2023/12/11 10:42:26;;;;;;;3.53;2.30;;;5.60;71.10;;;;;;5052794;28;20056;-71
2023/12/11 10:44:55;;;;;;;2.75;1.52;;;5.70;71.10;;;;;;5054454;28;20125;-73
2023/12/11 10:47:22;;;;;;;1.40;0.82;;;6.00;71.60;;;;;;5054406;28;20505;-71
2023/12/11 10:49:49;;;;;;;3.65;2.05;;;6.20;70.70;;;;;;5053227;28;20076;-73
2023/12/11 10:52:16;;;;;;;4.32;2.33;;;6.30;70.30;;;;;;5053980;28;20033;-74
2023/12/11 10:54:42;;;;;;;1.48;0.98;;;6.40;69.40;;;;;;5035958;28;20029;-73
2023/12/11 10:57:13;;;;;;;2.70;1.27;;;6.50;69.90;;;;;;5054248;28;20029;-73
2023/12/11 10:59:40;;;;;;;3.30;1.63;;;6.40;70.00;;;;;;5052718;28;20086;-73
2023/12/11 11:02:07;;;;;;;;;;;6.70;69.60;;;;;;5054572;28;20041;-71
2023/12/11 11:04:39;;;;;;;3.25;1.75;;;6.80;68.70;;;;;;5052457;28;19975;-73
2023/12/11 11:07:28;;;;;;;3.45;1.85;;;7.40;67.50;;;;;;5052904;28;20021;-73
2023/12/11 11:10:21;;;;;;;4.32;2.22;;;7.90;64.60;;;;;;5052856;28;20037;-73
2023/12/11 11:13:16;;;;;;;2.15;1.65;;;7.70;65.40;;;;;;5052365;28;20518;-70
2023/12/11 11:15:42;;;;;;;4.68;3.10;;;7.50;66.20;;;;;;5035688;28;20385;-73
2023/12/11 11:18:11;;;;;;;1.65;1.35;;;7.30;67.10;;;;;;5052587;28;20036;-73
2023/12/11 11:20:39;;;;;;;4.88;2.58;;;7.20;68.20;;;;;;5051767;28;20029;-73
2023/12/11 11:23:26;;;;;;;2.25;1.25;;;7.20;68.10;;;;;;5052465;28;20037;-74
2023/12/11 11:25:52;;;;;;;;;;;7.00;68.60;;;;;;5052640;28;20103;-71
2023/12/11 11:28:57;;;;;;;3.30;1.33;;;6.90;68.90;;;;;;5052478;28;19999;-73
2023/12/11 11:32:02;;;;;;;4.95;3.83;;;6.90;69.00;;;;;;5053192;28;20219;-73
2023/12/11 11:34:47;;;;;;;3.28;1.42;;;7.40;67.80;;;;;;5052149;28;20041;-73
2023/12/11 11:37:17;;;;;;;3.67;3.03;;;7.50;67.10;;;;;;5052282;28;20065;-73
2023/12/11 11:40:04;;;;;;;1.13;0.93;;;7.60;66.90;;;;;;5053716;28;20116;-70
2023/12/11 11:42:49;;;;;;;1.65;1.20;;;7.80;66.30;;;;;;5052809;28;20063;-73
2023/12/11 11:45:15;;;;;;;6.68;5.25;;;8.40;66.70;;;;;;5051658;28;20380;-72
2023/12/11 11:47:41;;;;;;;5.53;1.42;;;8.60;64.70;;;;;;5052127;28;20039;-73
2023/12/11 11:50:10;;;;;;;2.33;1.58;;;8.60;65.80;;;;;;5051384;28;20048;-71
2023/12/11 11:55:42;;;;;;;3.65;2.85;;;11.30;58.00;;;;;;5052794;28;20052;-73
2023/12/11 11:58:27;;;;;;;3.75;2.58;;;12.80;52.80;;;;;;5051857;28;20063;-71
2023/12/11 12:01:21;;;;;;;2.05;1.55;;;12.20;53.80;;;;;;5052407;28;20032;-71
2023/12/11 12:03:47;;;;;;;3.13;2.30;;;11.50;56.30;;;;;;5051395;28;20041;-74
2023/12/11 12:06:16;;;;;;;6.93;2.40;;;11.20;57.30;;;;;;5052824;28;20505;-73
2023/12/11 12:08:43;;;;;;;4.05;2.55;;;11.00;57.80;;;;;;5051560;28;20098;-74
2023/12/11 12:11:11;;;;;;;2.45;1.55;;;10.70;59.20;;;;;;5050638;28;20044;-73
2023/12/11 12:13:37;;;;;;;6.05;3.55;;;10.50;60.20;;;;;;5051481;28;20033;-73
2023/12/11 12:16:04;;;;;;;3.75;2.67;;;10.40;60.30;;;;;;5051177;28;20033;-71
2023/12/11 12:18:30;;;;;;;4.65;2.13;;;10.30;60.10;;;;;;5034814;28;20430;-74
2023/12/11 12:21:14;;;;;;;;;;;10.20;61.50;;;;;;5051306;28;20136;-74
2023/12/11 12:23:40;;;;;;;5.97;2.97;;;10.20;62.30;;;;;;5052475;28;19920;-71
2023/12/11 12:26:07;;;;;;;4.03;2.72;;;10.00;62.50;;;;;;5052276;28;20029;-71
2023/12/11 12:28:34;;;;;;;;;;;9.80;63.10;;;;;;5051808;28;20059;-74
2023/12/11 12:31:00;;;;;;;3.63;1.50;;;9.80;63.80;;;;;;5050614;28;19921;-70
2023/12/11 12:33:27;;;;;;;2.28;1.55;;;9.60;63.70;;;;;;5050935;28;20040;-70
2023/12/11 12:35:53;;;;;;;4.03;2.47;;;9.50;64.40;;;;;;5051105;28;20397;-71
2023/12/11 12:38:19;;;;;;;5.07;2.55;;;9.40;64.90;;;;;;5052453;28;20037;-74
2023/12/11 12:40:45;;;;;;;5.57;3.42;;;9.30;66.20;;;;;;5050376;28;20037;-71
2023/12/11 12:43:12;;;;;;;4.85;1.65;;;9.10;66.40;;;;;;5052338;28;20478;-70
2023/12/11 12:45:39;;;;;;;8.07;4.80;;;9.00;66.70;;;;;;5050708;28;20041;-74
2023/12/11 12:48:08;;;;;;;2.83;1.85;;;8.80;67.50;;;;;;5051412;28;20452;-73
2023/12/11 12:50:34;;;;;;;3.22;2.20;;;8.60;68.00;;;;;;5051511;28;20041;-74
2023/12/11 12:53:19;;;;;;;10.23;3.03;;;8.50;68.50;;;;;;5050846;28;20040;-71
2023/12/11 12:55:45;;;;;;;3.10;2.55;;;8.50;69.10;;;;;;5052020;28;20040;-71
2023/12/11 12:58:11;;;;;;;12.55;4.38;;;8.30;69.40;;;;;;5034269;28;20045;-74
2023/12/11 13:00:39;;;;;;;3.75;3.22;;;8.20;69.80;;;;;;5050245;28;20053;-70
2023/12/11 13:05:53;;;;;;;8.25;3.78;;;8.00;70.60;;;;;;5050855;28;20575;-73
2023/12/11 13:08:20;;;;;;;3.47;2.10;;;8.00;71.20;;;;;;5050780;28;20083;-73
2023/12/11 13:11:06;;;;;;;8.15;3.25;;;7.80;71.50;;;;;;5051437;28;20033;-74
2023/12/11 13:13:32;;;;;;;6.80;5.53;;;7.80;71.90;;;;;;5050858;28;20148;-73
2023/12/11 13:15:58;;;;;;;4.30;2.25;;;7.70;72.20;;;;;;5051780;28;20429;-71
2023/12/11 13:18:25;;;;;;;;;;;7.60;71.90;;;;;;5052584;28;20083;-72
2023/12/11 13:20:51;;;;;;;17.38;3.38;;;7.60;72.30;;;;;;5050049;28;19952;-73
2023/12/11 13:23:18;;;;;;;4.80;2.83;;;7.50;73.00;;;;;;5054548;28;20072;-74
2023/12/11 13:25:44;;;;;;;3.13;2.63;;;7.40;72.90;;;;;;5055520;28;20037;-74
2023/12/11 13:28:10;;;;;;;6.63;2.40;;;7.40;73.80;;;;;;5054824;28;20037;-73
2023/12/11 13:30:36;;;;;;;4.20;1.90;;;7.40;74.00;;;;;;5053947;28;20037;-71